Time;durP1;ratioP1;P1;durP2;ratioP2;P2;SDS_P1;SDS_P2;PMS_P1;PMS_P2;Temp;Humidity;BMP_temperature;BMP_pressure;BME280_temperature;BME280_humidity;BME280_pressure;Samples;Min_cycle;Max_cycle;Signal;HPM_P1;HPM_P2
2023/08/17 00:01:57;;;;;;;7.97;2.33;;;;;;;26.68;55.84;101721.41;5026052;27;99430;-65
2023/08/17 00:04:24;;;;;;;5.50;1.98;;;;;;;26.65;56.04;101721.66;5023433;27;98832;-65
2023/08/17 00:06:50;;;;;;;6.88;2.03;;;;;;;26.45;56.80;101709.88;5029145;27;96773;-64
2023/08/17 00:09:17;;;;;;;4.80;1.80;;;;;;;26.61;56.74;101703.97;5021010;27;97196;-65
2023/08/17 00:11:45;;;;;;;7.78;2.15;;;;;;;26.65;56.00;101699.16;5025136;27;98866;-65
2023/08/17 00:14:12;;;;;;;5.57;1.70;;;;;;;26.56;56.26;101695.41;5027658;27;99429;-64
2023/08/17 00:16:39;;;;;;;3.45;1.85;;;;;;;26.52;56.57;101688.50;5027054;27;96796;-64
2023/08/17 00:19:05;;;;;;;4.53;1.95;;;;;;;26.61;56.19;101681.44;5028474;27;96926;-65
2023/08/17 00:21:32;;;;;;;5.05;1.95;;;;;;;26.57;56.08;101679.00;5028631;27;99484;-65
2023/08/17 00:23:58;;;;;;;3.63;1.88;;;;;;;26.59;56.15;101668.88;5029809;27;99091;-68
2023/08/17 00:26:25;;;;;;;13.35;2.15;;;;;;;26.36;56.81;101666.47;5027053;27;96773;-66
2023/08/17 00:28:52;;;;;;;2.05;1.70;;;;;;;26.22;57.23;101664.94;5022235;27;98953;-65
2023/08/17 00:31:19;;;;;;;3.13;2.17;;;;;;;26.18;57.60;101666.19;5029099;27;100625;-64
2023/08/17 00:33:45;;;;;;;6.28;1.70;;;;;;;26.12;57.97;101666.72;5029848;27;98167;-64
2023/08/17 00:36:11;;;;;;;7.47;2.20;;;;;;;26.33;57.04;101672.13;5028714;27;96747;-65
2023/08/17 00:38:38;;;;;;;5.90;2.05;;;;;;;26.40;56.58;101663.34;5026854;27;98312;-65
2023/08/17 00:41:04;;;;;;;9.23;2.03;;;;;;;26.49;56.40;101662.56;5029053;27;101078;-65
2023/08/17 00:43:31;;;;;;;5.18;2.00;;;;;;;26.36;56.74;101664.63;5027343;27;99209;-65
2023/08/17 00:45:59;;;;;;;13.40;2.25;;;;;;;26.49;56.37;101664.41;5028400;27;97010;-65
2023/08/17 00:48:28;;;;;;;5.07;2.10;;;;;;;26.19;57.36;101659.75;5027476;27;96886;-65
2023/08/17 00:50:56;;;;;;;6.13;2.53;;;;;;;26.19;57.50;101654.34;5023166;27;98995;-65
2023/08/17 00:53:24;;;;;;;3.75;2.00;;;;;;;26.20;57.13;101665.06;5028072;27;97768;-65
2023/08/17 00:55:53;;;;;;;5.95;1.63;;;;;;;26.29;56.80;101666.16;5029409;27;100216;-65
2023/08/17 00:58:21;;;;;;;7.18;2.40;;;;;;;26.30;57.04;101665.16;5025747;27;96825;-65
2023/08/17 01:00:48;;;;;;;6.95;2.28;;;;;;;26.35;56.82;101665.59;5024876;27;99229;-64
2023/08/17 01:03:18;;;;;;;9.48;2.10;;;;;;;26.26;56.98;101673.66;5025624;27;99243;-65
2023/08/17 01:05:44;;;;;;;4.07;2.22;;;;;;;26.21;57.51;101679.47;5025943;27;96754;-65
2023/08/17 01:08:11;;;;;;;5.32;2.08;;;;;;;26.10;57.90;101674.13;5020540;27;96992;-66
2023/08/17 01:10:48;;;;;;;5.13;2.22;;;;;;;25.95;58.57;101678.13;5026180;27;100527;-65
2023/08/17 01:13:21;;;;;;;4.82;1.90;;;;;;;26.16;58.13;101671.75;5020504;27;99165;-65
2023/08/17 01:15:53;;;;;;;4.90;2.53;;;;;;;26.01;58.30;101672.19;5023837;27;100202;-65
2023/08/17 01:18:24;;;;;;;5.47;2.17;;;;;;;26.00;58.09;101665.91;5021193;27;99102;-65
2023/08/17 01:20:51;;;;;;;5.55;2.17;;;;;;;25.95;58.06;101661.88;5027139;27;99261;-65
2023/08/17 01:23:19;;;;;;;6.20;2.88;;;;;;;25.96;57.99;101658.19;5030768;27;97781;-65
2023/08/17 01:25:45;;;;;;;5.28;1.83;;;;;;;25.79;58.76;101656.94;5031491;27;96700;-65
2023/08/17 01:28:12;;;;;;;4.90;2.10;;;;;;;25.85;58.70;101658.25;5031209;27;97148;-65
2023/08/17 01:30:48;;;;;;;4.97;2.17;;;;;;;25.62;59.50;101646.66;5024819;27;98115;-65
2023/08/17 01:33:21;;;;;;;5.07;2.10;;;;;;;25.68;58.87;101663.25;5025936;27;98830;-65
2023/08/17 01:35:55;;;;;;;5.18;2.13;;;;;;;25.69;58.86;101658.69;5030033;27;96755;-65
2023/08/17 01:38:24;;;;;;;3.83;2.05;;;;;;;25.41;59.84;101655.56;5027909;27;96723;-65
2023/08/17 01:40:53;;;;;;;6.25;2.58;;;;;;;25.36;59.95;101665.91;5026310;27;98940;-65
2023/08/17 01:43:20;;;;;;;4.88;2.03;;;;;;;25.48;59.74;101655.91;5028700;27;99060;-65
2023/08/17 01:45:47;;;;;;;6.43;2.15;;;;;;;25.46;59.60;101660.63;5026887;27;97278;-65
2023/08/17 01:48:14;;;;;;;5.88;1.88;;;;;;;25.50;59.42;101655.78;5026308;27;97345;-65
2023/08/17 01:50:40;;;;;;;8.55;2.50;;;;;;;25.40;59.33;101655.72;5023409;27;99190;-65
2023/08/17 01:53:06;;;;;;;6.22;2.08;;;;;;;25.53;58.97;101655.56;5026280;27;97501;-64
2023/08/17 01:55:35;;;;;;;5.60;2.10;;;;;;;25.50;59.24;101662.06;5025924;27;96859;-64
2023/08/17 01:58:01;;;;;;;3.60;1.88;;;;;;;25.48;59.47;101666.72;5026671;27;97393;-64
2023/08/17 02:00:28;;;;;;;4.35;1.98;;;;;;;25.34;59.78;101664.31;5022280;27;99299;-64
2023/08/17 02:02:54;;;;;;;6.60;2.22;;;;;;;25.51;59.20;101662.94;5023699;27;100835;-65
2023/08/17 02:05:21;;;;;;;5.43;2.05;;;;;;;25.37;59.19;101659.53;5030673;27;96790;-65
2023/08/17 02:07:47;;;;;;;5.22;1.98;;;;;;;25.20;60.17;101662.78;5026967;27;97700;-65
2023/08/17 02:10:14;;;;;;;8.07;2.05;;;;;;;25.54;58.92;101668.06;5030380;27;101323;-65
2023/08/17 02:12:41;;;;;;;6.75;2.20;;;;;;;25.55;59.27;101675.19;5027892;27;99429;-65
2023/08/17 02:15:09;;;;;;;9.27;2.58;;;;;;;25.65;58.81;101668.94;5030470;27;97016;-64
2023/08/17 02:17:35;;;;;;;8.93;2.60;;;;;;;25.62;58.79;101671.88;5026446;27;98223;-64
2023/08/17 02:20:03;;;;;;;6.35;1.95;;;;;;;25.53;59.06;101667.22;5030444;27;97922;-64
2023/08/17 02:22:29;;;;;;;4.95;2.20;;;;;;;25.50;58.97;101672.88;5028281;27;98767;-64
2023/08/17 02:24:55;;;;;;;10.48;2.28;;;;;;;25.43;59.36;101677.09;5023978;27;100524;-64
2023/08/17 02:27:25;;;;;;;5.03;2.30;;;;;;;25.53;58.87;101674.50;5023423;27;98019;-65
2023/08/17 02:29:52;;;;;;;4.38;1.75;;;;;;;25.62;58.49;101671.88;5027425;27;105706;-64
2023/08/17 02:32:19;;;;;;;9.18;2.30;;;;;;;25.33;59.49;101665.34;5025642;27;97841;-66
2023/08/17 02:34:45;;;;;;;8.02;2.35;;;;;;;25.27;59.64;101657.72;5024802;27;97093;-64
2023/08/17 02:37:12;;;;;;;7.57;2.20;;;;;;;25.14;59.84;101647.03;5023479;27;96885;-65
2023/08/17 02:39:38;;;;;;;4.90;2.03;;;;;;;25.12;60.20;101650.88;5027122;27;98926;-64
2023/08/17 02:42:05;;;;;;;8.02;2.10;;;;;;;25.13;60.10;101652.59;5030402;27;98944;-64
2023/08/17 02:44:31;;;;;;;5.15;2.22;;;;;;;25.17;60.00;101646.78;5027541;27;96788;-64
2023/08/17 02:46:59;;;;;;;5.75;2.20;;;;;;;25.34;59.60;101639.97;5025552;27;97658;-64
2023/08/17 02:49:25;;;;;;;10.77;2.70;;;;;;;25.35;58.85;101644.41;5027932;27;98920;-66
2023/08/17 02:51:51;;;;;;;4.20;2.35;;;;;;;25.18;59.43;101644.94;5027677;27;99114;-63
2023/08/17 02:54:18;;;;;;;5.90;2.03;;;;;;;25.23;59.50;101642.72;5028178;27;100824;-64
2023/08/17 02:56:44;;;;;;;5.45;2.15;;;;;;;25.16;59.63;101638.81;5027684;27;99189;-64
2023/08/17 02:59:11;;;;;;;9.52;1.92;;;;;;;25.28;59.10;101641.34;5027852;27;99153;-63
2023/08/17 03:01:37;;;;;;;5.18;2.10;;;;;;;25.23;59.37;101631.91;5025625;27;99179;-64
2023/08/17 03:04:05;;;;;;;5.40;2.22;;;;;;;25.17;59.21;101632.41;5024374;27;96800;-64
2023/08/17 03:06:32;;;;;;;6.88;1.85;;;;;;;25.28;58.59;101638.63;5027592;27;97159;-64
2023/08/17 03:08:58;;;;;;;3.17;1.80;;;;;;;25.13;58.92;101642.63;5029025;27;97634;-64
2023/08/17 03:11:25;;;;;;;7.40;2.20;;;;;;;25.18;58.95;101642.25;5028622;27;99290;-67
2023/08/17 03:13:52;;;;;;;4.82;1.95;;;;;;;25.19;58.86;101642.13;5026088;27;97231;-64
2023/08/17 03:16:19;;;;;;;3.20;1.73;;;;;;;24.95;58.90;101644.97;5030955;27;98403;-65
2023/08/17 03:18:45;;;;;;;7.35;2.03;;;;;;;25.14;58.86;101638.09;5026630;27;98695;-65
2023/08/17 03:21:13;;;;;;;4.53;1.75;;;;;;;25.14;58.92;101638.91;5028878;27;99067;-65
2023/08/17 03:23:39;;;;;;;3.92;1.67;;;;;;;25.22;57.92;101630.19;5025555;27;97989;-65
2023/08/17 03:26:06;;;;;;;4.93;1.60;;;;;;;25.19;57.70;101631.31;5021673;27;97412;-65
2023/08/17 03:28:32;;;;;;;5.20;2.30;;;;;;;25.27;57.62;101639.63;5027514;27;100529;-65
2023/08/17 03:30:58;;;;;;;6.40;2.28;;;;;;;25.30;57.07;101631.25;5025601;27;98887;-64
2023/08/17 03:33:25;;;;;;;4.22;1.90;;;;;;;25.10;57.87;101628.50;5027203;27;100509;-65
2023/08/17 03:35:51;;;;;;;5.68;1.90;;;;;;;25.13;57.31;101621.00;5026603;27;98962;-65
2023/08/17 03:38:19;;;;;;;5.13;1.90;;;;;;;25.09;57.65;101621.34;5029554;27;98395;-65
2023/08/17 03:40:45;;;;;;;7.00;1.80;;;;;;;25.08;57.32;101634.03;5026897;27;98780;-65
2023/08/17 03:43:12;;;;;;;6.57;2.00;;;;;;;24.95;57.77;101633.31;5027825;27;97993;-64
2023/08/17 03:45:38;;;;;;;5.85;2.10;;;;;;;24.98;57.78;101633.94;5026792;27;96959;-65
2023/08/17 03:48:06;;;;;;;5.97;2.10;;;;;;;25.00;57.44;101640.09;5028663;27;98904;-65
2023/08/17 03:50:33;;;;;;;4.82;1.80;;;;;;;25.18;56.69;101636.84;5025593;27;99535;-66
2023/08/17 03:52:59;;;;;;;3.60;1.95;;;;;;;24.99;57.23;101634.78;5030244;27;96745;-65
2023/08/17 03:55:27;;;;;;;6.18;2.13;;;;;;;24.88;57.26;101630.22;5027824;27;99750;-65
2023/08/17 03:57:54;;;;;;;4.72;2.08;;;;;;;24.79;56.94;101627.41;5025920;27;99230;-65
2023/08/17 04:00:20;;;;;;;6.10;2.08;;;;;;;24.73;57.13;101633.31;5018420;27;99156;-64
2023/08/17 04:02:46;;;;;;;6.88;1.88;;;;;;;24.93;56.26;101633.47;5026864;27;100935;-66
2023/08/17 04:05:13;;;;;;;3.50;1.63;;;;;;;24.83;56.73;101629.72;5023428;27;96852;-66
2023/08/17 04:07:40;;;;;;;4.28;1.92;;;;;;;25.01;56.26;101628.25;5029017;27;99472;-65
2023/08/17 04:10:08;;;;;;;5.45;2.03;;;;;;;24.96;55.62;101629.63;5025782;27;99975;-65
2023/08/17 04:12:35;;;;;;;5.75;2.05;;;;;;;25.01;55.71;101625.56;5026309;27;97549;-65
2023/08/17 04:15:02;;;;;;;5.50;1.80;;;;;;;24.99;54.84;101619.44;5025301;27;98803;-65
2023/08/17 04:17:29;;;;;;;5.03;2.00;;;;;;;25.19;54.84;101622.34;5025381;27;98990;-65
2023/08/17 04:19:55;;;;;;;4.25;1.85;;;;;;;25.19;54.18;101619.63;5027424;27;99867;-64
2023/08/17 04:22:22;;;;;;;5.18;1.90;;;;;;;25.23;54.08;101623.78;5030171;27;96810;-67
2023/08/17 04:24:48;;;;;;;8.35;1.92;;;;;;;25.27;53.61;101619.84;5026674;27;97682;-66
2023/08/17 04:27:15;;;;;;;3.10;1.58;;;;;;;25.36;53.51;101621.78;5029546;27;101284;-66
2023/08/17 04:29:43;;;;;;;4.93;1.98;;;;;;;25.26;53.29;101618.13;5028744;27;98844;-66
2023/08/17 04:32:14;;;;;;;11.13;2.15;;;;;;;25.38;52.91;101619.81;5025413;27;101299;-67
2023/08/17 04:34:42;;;;;;;4.78;1.70;;;;;;;25.47;52.77;101629.84;5026528;27;97744;-67
2023/08/17 04:37:09;;;;;;;3.47;1.58;;;;;;;25.35;52.31;101620.91;5018598;27;98919;-67
2023/08/17 04:39:35;;;;;;;3.40;1.67;;;;;;;25.49;52.28;101610.78;5022633;27;98302;-66
2023/08/17 04:42:01;;;;;;;5.60;1.60;;;;;;;25.51;52.03;101614.22;5026019;27;97530;-65
2023/08/17 04:44:28;;;;;;;4.57;1.95;;;;;;;25.54;51.92;101616.66;5025756;27;97644;-66
2023/08/17 04:46:55;;;;;;;3.90;1.52;;;;;;;25.76;51.82;101622.84;5026810;27;98900;-65
2023/08/17 04:49:22;;;;;;;4.95;2.00;;;;;;;25.71;51.57;101622.41;5025852;27;99265;-66
2023/08/17 04:51:48;;;;;;;4.97;1.92;;;;;;;25.72;51.23;101626.81;5027167;27;96900;-65
2023/08/17 04:54:15;;;;;;;4.15;1.70;;;;;;;25.73;51.16;101631.22;5028262;27;98889;-65
2023/08/17 04:56:43;;;;;;;11.20;3.10;;;;;;;25.67;51.36;101633.59;5025758;27;98884;-64
2023/08/17 04:59:09;;;;;;;4.78;1.70;;;;;;;25.71;50.77;101626.94;5029127;27;98953;-65
2023/08/17 05:01:36;;;;;;;5.95;2.10;;;;;;;25.85;50.60;101636.59;5027548;27;97078;-65
2023/08/17 05:04:05;;;;;;;4.22;1.80;;;;;;;25.90;50.56;101627.09;5025579;27;96869;-64
2023/08/17 05:06:32;;;;;;;4.13;1.33;;;;;;;25.90;50.87;101626.22;5021761;27;98956;-65
2023/08/17 05:08:59;;;;;;;5.50;1.70;;;;;;;26.08;50.35;101625.50;5025429;27;99438;-66
2023/08/17 05:11:26;;;;;;;6.03;2.22;;;;;;;26.16;50.40;101627.53;5025867;27;96948;-65
2023/08/17 05:13:52;;;;;;;3.50;1.75;;;;;;;26.14;49.97;101634.94;5026334;27;96835;-66
2023/08/17 05:16:19;;;;;;;4.97;1.90;;;;;;;26.12;50.27;101634.22;5029467;27;101342;-65
2023/08/17 05:18:45;;;;;;;4.63;1.95;;;;;;;26.24;49.57;101635.91;5030421;27;98815;-65
2023/08/17 05:21:13;;;;;;;7.00;1.60;;;;;;;26.08;49.87;101638.19;5024181;27;98793;-67
2023/08/17 05:23:39;;;;;;;4.78;1.80;;;;;;;25.93;50.10;101628.69;5030709;27;97477;-67
2023/08/17 05:26:06;;;;;;;4.75;1.70;;;;;;;25.98;50.06;101631.84;5030802;27;101369;-67
2023/08/17 05:28:32;;;;;;;6.57;1.65;;;;;;;26.23;49.67;101631.44;5030130;27;98829;-66
2023/08/17 05:31:04;;;;;;;3.60;1.85;;;;;;;26.04;50.21;101639.44;5023388;27;97407;-66
2023/08/17 05:33:31;;;;;;;6.32;2.30;;;;;;;26.25;49.40;101637.63;5026031;27;97293;-65
2023/08/17 05:35:57;;;;;;;16.05;2.15;;;;;;;26.17;49.67;101634.69;5029975;27;98919;-65
2023/08/17 05:38:25;;;;;;;9.15;1.80;;;;;;;26.22;49.79;101629.72;5030202;27;99341;-65
2023/08/17 05:40:55;;;;;;;10.05;1.98;;;;;;;26.27;49.48;101627.47;5028271;27;101695;-66
2023/08/17 05:43:22;;;;;;;5.82;1.70;;;;;;;26.16;49.71;101632.97;5028847;27;96956;-66
2023/08/17 05:45:48;;;;;;;4.93;2.20;;;;;;;25.85;50.73;101639.31;5030994;27;98982;-66
2023/08/17 05:48:15;;;;;;;8.65;1.90;;;;;;;26.00;50.30;101632.56;5032460;27;101878;-65
2023/08/17 05:50:42;;;;;;;5.00;1.80;;;;;;;26.05;49.95;101638.47;5030811;27;96880;-65
2023/08/17 05:53:09;;;;;;;9.45;1.75;;;;;;;26.12;49.87;101643.19;5028498;27;97779;-65
2023/08/17 05:55:38;;;;;;;6.63;2.15;;;;;;;26.25;49.88;101664.72;5030575;27;98924;-66
2023/08/17 05:58:05;;;;;;;10.07;2.05;;;;;;;26.28;50.04;101685.25;5022942;27;98720;-65
2023/08/17 06:00:31;;;;;;;4.75;1.70;;;;;;;26.18;50.19;101706.84;5024261;27;97586;-67
2023/08/17 06:03:01;;;;;;;6.65;1.55;;;;;;;26.02;50.78;101718.09;5023275;27;96940;-67
2023/08/17 06:05:28;;;;;;;3.35;1.80;;;;;;;26.03;51.61;101732.50;5030585;27;101723;-66
2023/08/17 06:07:54;;;;;;;5.53;2.05;;;;;;;26.06;52.00;101740.34;5027988;27;98880;-66
2023/08/17 06:10:24;;;;;;;4.72;1.70;;;;;;;25.77;52.24;101749.09;5024529;27;98971;-66
2023/08/17 06:12:53;;;;;;;6.75;2.15;;;;;;;25.69;52.88;101748.88;5028555;27;96756;-66
2023/08/17 06:15:19;;;;;;;8.13;1.98;;;;;;;25.83;52.93;101728.78;5030396;27;99332;-67
2023/08/17 06:17:45;;;;;;;5.43;1.88;;;;;;;25.78;51.84;101725.59;5028825;27;99185;-66
2023/08/17 06:20:14;;;;;;;9.50;2.17;;;;;;;26.22;51.50;101720.94;5023226;27;97628;-67
2023/08/17 06:22:40;;;;;;;4.40;1.70;;;;;;;26.46;51.07;101717.00;5023150;27;97582;-67
2023/08/17 06:25:08;;;;;;;11.95;2.78;;;;;;;26.07;52.02;101725.81;5025239;27;98885;-65
2023/08/17 06:27:35;;;;;;;4.00;2.40;;;;;;;26.12;51.90;101723.59;5030253;27;98836;-66
2023/08/17 06:30:03;;;;;;;4.97;2.03;;;;;;;26.30;51.46;101727.47;5029498;27;96865;-65
2023/08/17 06:32:30;;;;;;;4.25;2.08;;;;;;;26.27;51.44;101725.00;5024700;27;101270;-66
2023/08/17 06:34:57;;;;;;;6.50;1.98;;;;;;;26.49;50.83;101716.75;5024276;27;100436;-66
2023/08/17 06:37:25;;;;;;;8.90;2.45;;;;;;;26.66;50.16;101711.69;5027977;27;97838;-66
2023/08/17 06:39:51;;;;;;;8.18;2.05;;;;;;;26.64;49.93;101701.00;5015007;27;98532;-66
2023/08/17 06:42:18;;;;;;;5.53;1.75;;;;;;;26.88;49.00;101695.25;5022935;27;97195;-65
2023/08/17 06:44:45;;;;;;;6.05;2.20;;;;;;;26.80;49.19;101698.63;5021404;27;99164;-65
2023/08/17 06:47:13;;;;;;;7.20;2.10;;;;;;;27.00;48.98;101680.63;5015459;27;98758;-65
2023/08/17 06:49:39;;;;;;;8.18;2.20;;;;;;;26.90;49.18;101677.03;5028068;27;96916;-65
2023/08/17 06:52:06;;;;;;;7.50;1.80;;;;;;;26.91;48.69;101681.47;5027138;27;97951;-66
2023/08/17 06:54:35;;;;;;;4.18;1.98;;;;;;;26.75;50.10;101679.22;5023185;27;98456;-65
2023/08/17 06:57:01;;;;;;;9.30;2.05;;;;;;;26.58;49.71;101683.41;5028895;27;100407;-65
2023/08/17 06:59:28;;;;;;;7.32;2.67;;;;;;;26.67;49.84;101689.00;5023513;27;98907;-65
2023/08/17 07:01:54;;;;;;;5.15;1.88;;;;;;;26.66;50.32;101685.44;5026450;27;98408;-66
2023/08/17 07:04:22;;;;;;;27.88;4.20;;;;;;;26.80;50.21;101678.81;5022640;27;99520;-67
2023/08/17 07:06:49;;;;;;;7.70;2.30;;;;;;;27.03;49.91;101677.66;5026030;27;99458;-67
2023/08/17 07:09:20;;;;;;;9.15;2.42;;;;;;;26.89;49.14;101673.47;5019519;27;98565;-67
2023/08/17 07:11:47;;;;;;;6.47;2.55;;;;;;;27.32;49.01;101683.13;5020711;27;96912;-66
2023/08/17 07:14:14;;;;;;;8.65;2.78;;;;;;;27.22;48.83;101683.13;5027928;27;101891;-64
2023/08/17 07:16:40;;;;;;;9.82;2.67;;;;;;;27.42;48.73;101677.72;5029572;27;97660;-66
2023/08/17 07:19:07;;;;;;;4.72;2.03;;;;;;;27.64;47.70;101681.03;5022066;27;99192;-65
2023/08/17 07:21:35;;;;;;;8.35;2.10;;;;;;;27.78;47.29;101685.19;5019652;27;97881;-65
2023/08/17 07:24:12;;;;;;;5.13;2.13;;;;;;;27.65;47.45;101679.19;5022392;27;99338;-65
2023/08/17 07:26:39;;;;;;;5.72;2.58;;;;;;;27.71;47.27;101684.91;5022868;27;99160;-65
2023/08/17 07:29:05;;;;;;;7.63;2.75;;;;;;;27.55;47.89;101683.78;5024773;27;96858;-65
2023/08/17 07:31:33;;;;;;;5.18;2.65;;;;;;;27.57;47.65;101693.47;5027384;27;97419;-65
2023/08/17 07:33:59;;;;;;;8.52;3.10;;;;;;;27.73;47.30;101695.63;5027160;27;98432;-65
2023/08/17 07:36:26;;;;;;;7.72;2.13;;;;;;;27.85;47.58;101693.63;5021970;27;99059;-65
2023/08/17 07:38:54;;;;;;;6.10;1.90;;;;;;;27.94;47.11;101690.91;5027254;27;96787;-65
2023/08/17 07:41:20;;;;;;;6.20;2.47;;;;;;;27.93;46.93;101685.63;5019252;27;97620;-66
2023/08/17 07:43:47;;;;;;;5.22;2.03;;;;;;;27.95;46.94;101687.22;5021956;27;99405;-66
2023/08/17 07:46:13;;;;;;;10.32;2.45;;;;;;;28.14;46.76;101687.22;5021788;27;98771;-66
2023/08/17 07:48:39;;;;;;;5.05;2.38;;;;;;;28.01;46.76;101681.19;5023422;27;100587;-66
2023/08/17 07:51:06;;;;;;;5.00;2.28;;;;;;;27.92;46.59;101679.34;5023880;27;96964;-66
2023/08/17 07:53:33;;;;;;;17.33;3.20;;;;;;;27.92;46.59;101676.63;5026164;27;102816;-66
2023/08/17 07:56:00;;;;;;;7.75;2.70;;;;;;;28.07;46.71;101669.75;5028362;27;98172;-66
2023/08/17 07:58:27;;;;;;;4.78;2.28;;;;;;;28.26;46.01;101665.31;5023452;27;97740;-66
2023/08/17 08:00:53;;;;;;;4.80;1.95;;;;;;;28.25;46.30;101666.31;5028174;27;97086;-66
2023/08/17 08:03:20;;;;;;;6.07;2.40;;;;;;;28.54;45.58;101667.09;5013285;27;99367;-66
2023/08/17 08:05:46;;;;;;;8.13;2.28;;;;;;;28.93;44.38;101662.38;5019067;27;98787;-66
2023/08/17 08:08:14;;;;;;;5.30;2.05;;;;;;;28.98;44.17;101651.88;5020326;27;97568;-66
2023/08/17 08:10:41;;;;;;;7.38;2.35;;;;;;;29.12;44.14;101648.66;5022410;27;97408;-66
2023/08/17 08:13:09;;;;;;;10.00;2.97;;;;;;;29.41;43.63;101643.00;5020558;27;98397;-66
2023/08/17 08:15:35;;;;;;;5.15;2.30;;;;;;;29.39;44.11;101636.03;5022664;27;98919;-66
2023/08/17 08:18:01;;;;;;;7.88;2.80;;;;;;;29.09;44.76;101634.47;5022636;27;97313;-67
2023/08/17 08:20:28;;;;;;;5.50;2.28;;;;;;;29.57;43.33;101642.31;5024168;27;97368;-66
2023/08/17 08:22:54;;;;;;;5.97;2.42;;;;;;;29.47;43.75;101634.22;5022190;27;98866;-66
2023/08/17 08:25:21;;;;;;;10.13;2.10;;;;;;;29.79;43.33;101635.56;5019613;27;99246;-65
2023/08/17 08:27:47;;;;;;;4.90;2.10;;;;;;;30.23;42.52;101628.22;5023674;27;97320;-65
2023/08/17 08:30:15;;;;;;;3.63;2.40;;;;;;;30.34;41.87;101628.81;5022780;27;97864;-67
2023/08/17 08:32:41;;;;;;;6.57;2.40;;;;;;;30.61;41.41;101640.56;5026051;27;99154;-66
2023/08/17 08:35:08;;;;;;;6.07;2.67;;;;;;;30.35;41.81;101630.53;5024133;27;98382;-66
2023/08/17 08:37:35;;;;;;;6.25;2.38;;;;;;;30.10;42.41;101626.78;5020944;27;97567;-65
2023/08/17 08:40:01;;;;;;;4.55;1.90;;;;;;;30.09;42.45;101624.22;5024906;27;97338;-65
2023/08/17 08:42:28;;;;;;;3.78;1.98;;;;;;;29.85;43.40;101613.13;5028311;27;99400;-65
2023/08/17 08:44:55;;;;;;;4.15;2.50;;;;;;;29.67;43.83;101611.25;5028324;27;99176;-65
2023/08/17 08:47:25;;;;;;;6.88;2.40;;;;;;;29.38;44.88;101602.50;5022453;27;97673;-65
2023/08/17 08:50:01;;;;;;;4.05;2.05;;;;;;;29.14;45.34;101604.97;5025311;27;96855;-65
2023/08/17 08:52:33;;;;;;;;;;;;;;;29.02;46.28;101611.59;5024995;27;99281;-64
2023/08/17 08:55:02;;;;;;;7.38;2.53;;;;;;;28.81;47.05;101610.03;5028008;27;99073;-66
2023/08/17 08:57:30;;;;;;;7.38;2.53;;;;;;;28.90;47.25;101609.09;5025396;27;99695;-65
2023/08/17 08:59:57;;;;;;;5.25;2.70;;;;;;;29.12;46.96;101609.69;5027073;27;97670;-66
2023/08/17 09:02:26;;;;;;;7.38;2.70;;;;;;;29.08;47.15;101600.97;5029517;27;100875;-65
2023/08/17 09:04:52;;;;;;;4.15;2.90;;;;;;;29.04;47.30;101602.28;5029266;27;97179;-65
2023/08/17 09:07:19;;;;;;;5.63;2.80;;;;;;;29.15;47.46;101598.47;5024240;27;97836;-65
2023/08/17 09:09:46;;;;;;;7.68;2.83;;;;;;;29.14;47.39;101591.34;5024269;27;97485;-65
2023/08/17 09:12:12;;;;;;;7.20;2.67;;;;;;;29.04;47.61;101591.41;5018550;27;101679;-65
2023/08/17 09:14:40;;;;;;;4.55;2.80;;;;;;;29.02;47.90;101598.84;5023144;27;101249;-66
2023/08/17 09:17:07;;;;;;;4.53;2.35;;;;;;;29.21;47.53;101592.44;5023161;27;97412;-65
2023/08/17 09:19:35;;;;;;;5.97;2.60;;;;;;;29.27;47.61;101587.25;5026940;27;97316;-65
2023/08/17 09:22:02;;;;;;;6.95;3.75;;;;;;;29.39;47.11;101587.88;5026373;27;98213;-65
2023/08/17 09:24:35;;;;;;;5.38;2.67;;;;;;;29.34;47.31;101595.69;5025128;27;99246;-65
2023/08/17 09:27:01;;;;;;;9.02;3.08;;;;;;;29.54;47.27;101604.50;5018826;27;96857;-65
2023/08/17 09:29:30;;;;;;;9.02;2.67;;;;;;;29.99;46.29;101610.72;5029175;27;97521;-65
2023/08/17 09:31:56;;;;;;;5.03;2.47;;;;;;;30.49;44.81;101607.28;5028269;27;98870;-65
2023/08/17 09:34:22;;;;;;;8.68;2.53;;;;;;;30.49;44.69;101605.41;5028769;27;99096;-65
2023/08/17 09:36:50;;;;;;;2.70;2.38;;;;;;;30.44;44.69;101599.56;5026981;27;98890;-65
2023/08/17 09:39:18;;;;;;;5.57;2.70;;;;;;;30.62;44.49;101598.66;5023586;27;98414;-65
2023/08/17 09:41:45;;;;;;;7.28;2.70;;;;;;;30.32;45.18;101598.16;5022561;27;98799;-67
2023/08/17 09:44:12;;;;;;;8.35;2.55;;;;;;;30.15;46.00;101609.09;5026267;27;98655;-66
2023/08/17 09:46:39;;;;;;;8.60;2.92;;;;;;;30.03;45.74;101603.06;5022338;27;96887;-65
2023/08/17 09:49:08;;;;;;;6.13;2.47;;;;;;;29.77;45.89;101603.00;5027144;27;97803;-65
2023/08/17 09:51:34;;;;;;;6.15;2.88;;;;;;;30.01;46.30;101600.50;5028775;27;99741;-65
2023/08/17 09:54:02;;;;;;;6.95;2.80;;;;;;;30.11;45.85;101600.41;5029140;27;99638;-65
2023/08/17 09:56:29;;;;;;;6.00;2.65;;;;;;;30.49;45.31;101594.50;5026788;27;97339;-64
2023/08/17 09:58:56;;;;;;;9.23;2.88;;;;;;;30.49;45.01;101591.78;5027683;27;97113;-64
2023/08/17 10:01:23;;;;;;;6.60;2.85;;;;;;;30.30;45.21;101588.41;5018042;27;102427;-66
2023/08/17 10:03:53;;;;;;;7.82;2.47;;;;;;;30.33;45.47;101583.47;5020491;27;99337;-64
2023/08/17 10:06:25;;;;;;;5.60;2.33;;;;;;;29.93;46.30;101585.97;5021728;27;96881;-65
2023/08/17 10:08:53;;;;;;;4.90;2.50;;;;;;;29.92;46.38;101582.41;5022717;27;97244;-65
2023/08/17 10:11:23;;;;;;;15.40;3.17;;;;;;;29.75;47.02;101576.94;5021773;27;99078;-65
2023/08/17 10:13:53;;;;;;;7.03;2.97;;;;;;;29.87;46.66;101586.56;5024682;27;98991;-65
2023/08/17 10:16:24;;;;;;;6.82;3.38;;;;;;;29.96;46.81;101580.19;5024822;27;96836;-69
2023/08/17 10:18:55;;;;;;;5.97;2.63;;;;;;;30.02;46.85;101585.00;5023757;27;97030;-64
2023/08/17 10:21:28;;;;;;;5.43;2.70;;;;;;;30.01;46.62;101583.28;5028936;27;98776;-64
2023/08/17 10:23:55;;;;;;;10.48;2.70;;;;;;;30.36;46.31;101582.31;5028085;27;99299;-66
2023/08/17 10:26:24;;;;;;;7.22;2.70;;;;;;;30.19;46.19;101575.06;5028552;27;98124;-64
2023/08/17 10:28:52;;;;;;;4.10;2.47;;;;;;;30.51;45.28;101574.41;5027917;27;97003;-64
2023/08/17 10:31:20;;;;;;;4.15;2.63;;;;;;;30.76;45.47;101574.31;5027638;27;98255;-64
2023/08/17 10:33:48;;;;;;;6.40;3.30;;;;;;;31.05;44.46;101579.38;5022681;27;99030;-68
2023/08/17 10:36:15;;;;;;;6.53;2.40;;;;;;;31.28;44.27;101579.59;5026648;27;96855;-66
2023/08/17 10:38:42;;;;;;;6.05;2.40;;;;;;;31.11;44.95;101569.69;5028926;27;97405;-66
2023/08/17 10:41:10;;;;;;;6.32;3.28;;;;;;;31.63;43.41;101572.97;5020327;27;98690;-66
2023/08/17 10:43:57;;;;;;;5.75;2.95;;;;;;;31.28;43.79;101583.16;5027904;27;102029;-66
2023/08/17 10:46:32;;;;;;;;;;;;;;;31.09;44.58;101577.16;5025625;27;98163;-66
2023/08/17 10:49:02;;;;;;;3.75;2.80;;;;;;;30.65;45.34;101580.09;5019851;27;96956;-66
2023/08/17 10:51:29;;;;;;;12.57;3.08;;;;;;;30.23;46.46;101571.00;5026687;27;98931;-66
2023/08/17 10:53:59;;;;;;;12.75;3.40;;;;;;;29.93;48.13;101577.81;5017087;27;98817;-66
2023/08/17 10:56:28;;;;;;;3.53;2.55;;;;;;;30.10;47.36;101577.75;5026687;27;97014;-67
2023/08/17 10:59:00;;;;;;;9.13;3.20;;;;;;;30.02;47.96;101574.94;5024926;27;98235;-69
2023/08/17 11:01:34;;;;;;;5.43;2.80;;;;;;;29.97;48.00;101579.19;5024308;27;98905;-66
2023/08/17 11:04:17;;;;;;;7.65;3.22;;;;;;;29.58;48.38;101579.53;5019203;27;100297;-66
2023/08/17 11:06:44;;;;;;;8.05;2.92;;;;;;;29.48;49.49;101575.19;5026544;27;97068;-66
2023/08/17 11:09:11;;;;;;;4.60;3.17;;;;;;;29.56;49.38;101575.25;5023888;27;97235;-65
2023/08/17 11:11:38;;;;;;;6.43;3.08;;;;;;;29.78;48.85;101563.00;5027872;27;99021;-67
2023/08/17 11:14:06;;;;;;;11.18;3.10;;;;;;;30.08;48.43;101573.44;5024818;27;99061;-65
2023/08/17 11:16:32;;;;;;;5.82;2.92;;;;;;;29.99;48.63;101563.53;5025496;27;98277;-65
2023/08/17 11:19:00;;;;;;;4.85;2.75;;;;;;;30.03;48.98;101571.22;5025143;27;97357;-65
2023/08/17 11:21:27;;;;;;;10.43;2.85;;;;;;;29.85;48.89;101567.66;5025730;27;99129;-65
2023/08/17 11:23:57;;;;;;;4.65;3.30;;;;;;;29.72;49.31;101572.69;5024429;27;98966;-65
2023/08/17 11:26:24;;;;;;;7.20;3.88;;;;;;;29.82;48.81;101573.41;5025973;27;96734;-66